sensor_id;sensor_type;location;lat;lon;timestamp;pressure;altitude;pressure_sealevel;temperature;humidity
11327;BME280;5718;42.138;24.762;2023-07-24T00:00:14;99642.63;;;25.48;95.98
11327;BME280;5718;42.138;24.762;2023-07-24T00:02:41;99641.50;;;25.23;97.87
11327;BME280;5718;42.138;24.762;2023-07-24T00:05:08;99641.34;;;25.10;97.57
11327;BME280;5718;42.138;24.762;2023-07-24T00:07:35;99636.63;;;24.83;100.00
11327;BME280;5718;42.138;24.762;2023-07-24T00:10:02;99634.06;;;24.50;100.00
11327;BME280;5718;42.138;24.762;2023-07-24T00:12:29;99642.03;;;24.50;100.00
11327;BME280;5718;42.138;24.762;2023-07-24T00:14:57;99636.94;;;24.46;100.00
11327;BME280;5718;42.138;24.762;2023-07-24T00:17:24;99642.34;;;24.44;100.00
11327;BME280;5718;42.138;24.762;2023-07-24T00:19:51;99647.31;;;24.34;100.00
11327;BME280;5718;42.138;24.762;2023-07-24T00:22:18;99642.34;;;24.44;100.00
11327;BME280;5718;42.138;24.762;2023-07-24T00:24:44;99635.59;;;24.21;100.00
11327;BME280;5718;42.138;24.762;2023-07-24T00:27:11;99641.16;;;24.17;100.00
11327;BME280;5718;42.138;24.762;2023-07-24T00:29:39;99646.13;;;23.90;100.00
11327;BME280;5718;42.138;24.762;2023-07-24T00:32:08;99639.69;;;24.11;100.00
11327;BME280;5718;42.138;24.762;2023-07-24T00:34:34;99641.34;;;23.96;100.00
11327;BME280;5718;42.138;24.762;2023-07-24T00:37:01;99645.50;;;23.85;100.00
11327;BME280;5718;42.138;24.762;2023-07-24T00:39:28;99648.97;;;23.69;100.00
11327;BME280;5718;42.138;24.762;2023-07-24T00:41:55;99636.00;;;23.63;100.00
11327;BME280;5718;42.138;24.762;2023-07-24T00:44:21;99636.13;;;23.43;100.00
11327;BME280;5718;42.138;24.762;2023-07-24T00:46:48;99639.47;;;23.46;100.00
11327;BME280;5718;42.138;24.762;2023-07-24T00:49:17;99633.88;;;23.35;100.00
11327;BME280;5718;42.138;24.762;2023-07-24T00:51:44;99635.88;;;23.30;100.00
11327;BME280;5718;42.138;24.762;2023-07-24T00:54:14;99631.69;;;23.26;100.00
11327;BME280;5718;42.138;24.762;2023-07-24T00:56:43;99640.38;;;23.11;100.00
11327;BME280;5718;42.138;24.762;2023-07-24T00:59:11;99647.13;;;22.99;100.00
11327;BME280;5718;42.138;24.762;2023-07-24T01:01:39;99644.09;;;23.07;100.00
11327;BME280;5718;42.138;24.762;2023-07-24T01:04:08;99647.13;;;22.99;100.00
11327;BME280;5718;42.138;24.762;2023-07-24T01:06:36;99647.97;;;22.99;100.00
11327;BME280;5718;42.138;24.762;2023-07-24T01:09:03;99646.88;;;22.86;100.00
11327;BME280;5718;42.138;24.762;2023-07-24T01:11:33;99638.84;;;22.88;100.00
11327;BME280;5718;42.138;24.762;2023-07-24T01:14:09;99641.66;;;22.85;100.00
11327;BME280;5718;42.138;24.762;2023-07-24T01:16:40;99640.31;;;22.75;100.00
11327;BME280;5718;42.138;24.762;2023-07-24T01:19:12;99643.63;;;22.80;100.00
11327;BME280;5718;42.138;24.762;2023-07-24T01:21:48;99644.47;;;22.80;100.00
11327;BME280;5718;42.138;24.762;2023-07-24T01:24:24;99650.56;;;22.63;100.00
11327;BME280;5718;42.138;24.762;2023-07-24T01:26:58;99649.28;;;22.72;100.00
11327;BME280;5718;42.138;24.762;2023-07-24T01:29:24;99649.34;;;22.70;100.00
11327;BME280;5718;42.138;24.762;2023-07-24T01:31:51;99649.50;;;22.67;100.00
11327;BME280;5718;42.138;24.762;2023-07-24T01:34:18;99659.19;;;22.68;100.00
11327;BME280;5718;42.138;24.762;2023-07-24T01:36:45;99655.88;;;22.45;100.00
11327;BME280;5718;42.138;24.762;2023-07-24T01:39:12;99658.44;;;22.46;100.00
11327;BME280;5718;42.138;24.762;2023-07-24T01:41:39;99658.94;;;22.54;100.00
11327;BME280;5718;42.138;24.762;2023-07-24T01:44:07;99660.47;;;22.60;100.00
11327;BME280;5718;42.138;24.762;2023-07-24T01:46:34;99674.59;;;22.59;100.00
11327;BME280;5718;42.138;24.762;2023-07-24T01:49:00;99677.75;;;22.67;100.00
11327;BME280;5718;42.138;24.762;2023-07-24T01:51:27;99677.13;;;22.43;100.00
11327;BME280;5718;42.138;24.762;2023-07-24T01:53:54;99675.84;;;22.52;100.00
11327;BME280;5718;42.138;24.762;2023-07-24T01:56:21;99677.75;;;22.67;100.00
11327;BME280;5718;42.138;24.762;2023-07-24T01:58:47;99678.69;;;22.47;100.00
11327;BME280;5718;42.138;24.762;2023-07-24T02:01:15;99676.91;;;22.48;100.00
11327;BME280;5718;42.138;24.762;2023-07-24T02:03:42;99671.09;;;22.39;100.00
11327;BME280;5718;42.138;24.762;2023-07-24T02:06:09;99672.72;;;22.42;100.00
11327;BME280;5718;42.138;24.762;2023-07-24T02:08:36;99673.75;;;22.58;100.00
11327;BME280;5718;42.138;24.762;2023-07-24T02:11:02;99675.19;;;22.47;100.00
11327;BME280;5718;42.138;24.762;2023-07-24T02:13:29;99670.91;;;22.44;100.00
11327;BME280;5718;42.138;24.762;2023-07-24T02:15:56;99674.16;;;22.30;100.00
11327;BME280;5718;42.138;24.762;2023-07-24T02:18:24;99670.84;;;22.25;100.00
11327;BME280;5718;42.138;24.762;2023-07-24T02:20:50;99665.97;;;22.16;100.00
11327;BME280;5718;42.138;24.762;2023-07-24T02:23:17;99666.22;;;22.30;100.00
11327;BME280;5718;42.138;24.762;2023-07-24T02:25:44;99677.81;;;22.28;100.00
11327;BME280;5718;42.138;24.762;2023-07-24T02:28:11;99682.78;;;22.15;100.00
11327;BME280;5718;42.138;24.762;2023-07-24T02:30:38;99685.16;;;22.21;100.00
11327;BME280;5718;42.138;24.762;2023-07-24T02:33:05;99670.22;;;22.20;100.00
11327;BME280;5718;42.138;24.762;2023-07-24T02:35:38;99678.78;;;22.25;100.00
11327;BME280;5718;42.138;24.762;2023-07-24T02:38:05;99672.34;;;22.12;100.00
11327;BME280;5718;42.138;24.762;2023-07-24T02:40:32;99679.44;;;22.11;100.00
11327;BME280;5718;42.138;24.762;2023-07-24T02:42:58;99682.44;;;22.02;100.00
11327;BME280;5718;42.138;24.762;2023-07-24T02:45:25;99696.00;;;22.15;100.00
11327;BME280;5718;42.138;24.762;2023-07-24T02:47:52;99699.19;;;22.23;100.00
11327;BME280;5718;42.138;24.762;2023-07-24T02:50:18;99692.84;;;22.27;100.00
11327;BME280;5718;42.138;24.762;2023-07-24T02:52:47;99686.34;;;22.34;100.00
11327;BME280;5718;42.138;24.762;2023-07-24T02:55:13;99679.09;;;22.19;100.00
11327;BME280;5718;42.138;24.762;2023-07-24T02:57:40;99684.88;;;22.07;100.00
11327;BME280;5718;42.138;24.762;2023-07-24T03:00:08;99688.41;;;21.87;100.00
11327;BME280;5718;42.138;24.762;2023-07-24T03:02:35;99694.66;;;22.05;100.00
11327;BME280;5718;42.138;24.762;2023-07-24T03:05:01;99691.09;;;21.65;100.00
11327;BME280;5718;42.138;24.762;2023-07-24T03:07:29;99685.63;;;21.70;100.00
11327;BME280;5718;42.138;24.762;2023-07-24T03:09:57;99682.97;;;21.70;100.00
11327;BME280;5718;42.138;24.762;2023-07-24T03:12:24;99683.03;;;21.88;100.00
11327;BME280;5718;42.138;24.762;2023-07-24T03:14:51;99686.22;;;21.76;100.00
11327;BME280;5718;42.138;24.762;2023-07-24T03:17:17;99687.63;;;21.85;100.00
11327;BME280;5718;42.138;24.762;2023-07-24T03:19:44;99688.97;;;21.73;100.00
11327;BME280;5718;42.138;24.762;2023-07-24T03:22:11;99687.25;;;21.72;100.00
11327;BME280;5718;42.138;24.762;2023-07-24T03:24:39;99688.72;;;21.79;100.00
11327;BME280;5718;42.138;24.762;2023-07-24T03:27:07;99685.69;;;21.68;100.00
11327;BME280;5718;42.138;24.762;2023-07-24T03:29:33;99691.09;;;21.65;100.00
11327;BME280;5718;42.138;24.762;2023-07-24T03:32:03;99687.72;;;21.62;100.00
11327;BME280;5718;42.138;24.762;2023-07-24T03:34:29;99689.50;;;21.61;100.00
11327;BME280;5718;42.138;24.762;2023-07-24T03:36:56;99688.44;;;21.65;100.00
11327;BME280;5718;42.138;24.762;2023-07-24T03:39:23;99679.25;;;21.74;100.00
11327;BME280;5718;42.138;24.762;2023-07-24T03:41:49;99681.44;;;21.64;100.00
11327;BME280;5718;42.138;24.762;2023-07-24T03:44:17;99698.53;;;21.77;100.00
11327;BME280;5718;42.138;24.762;2023-07-24T03:46:44;99694.66;;;21.84;100.00
11327;BME280;5718;42.138;24.762;2023-07-24T03:49:11;99694.28;;;21.94;100.00
11327;BME280;5718;42.138;24.762;2023-07-24T03:51:37;99687.00;;;21.99;100.00
11327;BME280;5718;42.138;24.762;2023-07-24T03:54:04;99688.41;;;22.07;100.00
11327;BME280;5718;42.138;24.762;2023-07-24T03:56:31;99687.16;;;22.16;100.00
11327;BME280;5718;42.138;24.762;2023-07-24T03:58:57;99684.94;;;22.05;100.00
11327;BME280;5718;42.138;24.762;2023-07-24T04:01:25;99680.13;;;22.15;100.00
11327;BME280;5718;42.138;24.762;2023-07-24T04:03:52;99687.28;;;22.13;100.00
11327;BME280;5718;42.138;24.762;2023-07-24T04:06:19;99689.03;;;22.33;100.00
11327;BME280;5718;42.138;24.762;2023-07-24T04:08:46;99683.34;;;22.61;100.00
11327;BME280;5718;42.138;24.762;2023-07-24T04:11:13;99681.91;;;22.73;100.00
11327;BME280;5718;42.138;24.762;2023-07-24T04:13:40;99685.50;;;22.71;100.00
11327;BME280;5718;42.138;24.762;2023-07-24T04:16:06;99679.63;;;22.65;100.00
11327;BME280;5718;42.138;24.762;2023-07-24T04:18:34;99685.81;;;23.03;100.00
11327;BME280;5718;42.138;24.762;2023-07-24T04:21:01;99695.97;;;23.12;100.00
11327;BME280;5718;42.138;24.762;2023-07-24T04:23:28;99696.94;;;23.29;100.00
11327;BME280;5718;42.138;24.762;2023-07-24T04:25:54;99703.09;;;23.29;100.00
11327;BME280;5718;42.138;24.762;2023-07-24T04:28:21;99699.38;;;23.14;100.00
11327;BME280;5718;42.138;24.762;2023-07-24T04:30:48;99698.69;;;23.11;100.00
11327;BME280;5718;42.138;24.762;2023-07-24T04:33:15;99708.03;;;23.01;100.00
11327;BME280;5718;42.138;24.762;2023-07-24T04:35:43;99703.34;;;23.06;100.00
11327;BME280;5718;42.138;24.762;2023-07-24T04:38:09;99708.31;;;23.31;100.00
11327;BME280;5718;42.138;24.762;2023-07-24T04:40:36;99713.41;;;23.35;100.00
11327;BME280;5718;42.138;24.762;2023-07-24T04:43:03;99712.84;;;23.82;100.00
11327;BME280;5718;42.138;24.762;2023-07-24T04:45:30;99722.38;;;24.03;100.00
11327;BME280;5718;42.138;24.762;2023-07-24T04:47:56;99728.91;;;24.14;100.00
11327;BME280;5718;42.138;24.762;2023-07-24T04:50:23;99731.56;;;23.79;100.00
11327;BME280;5718;42.138;24.762;2023-07-24T04:52:51;99725.09;;;23.67;100.00
11327;BME280;5718;42.138;24.762;2023-07-24T04:55:18;99721.03;;;23.60;100.00
11327;BME280;5718;42.138;24.762;2023-07-24T04:57:44;99723.69;;;23.41;100.00
11327;BME280;5718;42.138;24.762;2023-07-24T05:00:12;99719.56;;;23.36;100.00
11327;BME280;5718;42.138;24.762;2023-07-24T05:02:39;99726.19;;;23.63;100.00
11327;BME280;5718;42.138;24.762;2023-07-24T05:05:06;99719.56;;;23.72;100.00
11327;BME280;5718;42.138;24.762;2023-07-24T05:07:33;99724.38;;;23.81;100.00
11327;BME280;5718;42.138;24.762;2023-07-24T05:10:01;99722.47;;;23.85;100.00
11327;BME280;5718;42.138;24.762;2023-07-24T05:12:28;99727.88;;;23.64;100.00
11327;BME280;5718;42.138;24.762;2023-07-24T05:14:54;99726.75;;;23.87;100.00
11327;BME280;5718;42.138;24.762;2023-07-24T05:17:21;99727.84;;;24.00;100.00
11327;BME280;5718;42.138;24.762;2023-07-24T05:19:48;99726.53;;;23.92;100.00
11327;BME280;5718;42.138;24.762;2023-07-24T05:22:14;99725.47;;;24.12;100.00
11327;BME280;5718;42.138;24.762;2023-07-24T05:24:41;99731.47;;;24.15;100.00
11327;BME280;5718;42.138;24.762;2023-07-24T05:27:09;99729.81;;;24.30;100.00
11327;BME280;5718;42.138;24.762;2023-07-24T05:29:37;99732.97;;;24.38;100.00
11327;BME280;5718;42.138;24.762;2023-07-24T05:32:05;99743.50;;;24.40;100.00
11327;BME280;5718;42.138;24.762;2023-07-24T05:34:32;99749.81;;;24.54;100.00
11327;BME280;5718;42.138;24.762;2023-07-24T05:36:58;99744.75;;;24.65;100.00
11327;BME280;5718;42.138;24.762;2023-07-24T05:39:25;99752.94;;;24.78;100.00
11327;BME280;5718;42.138;24.762;2023-07-24T05:41:52;99758.84;;;24.68;100.00
11327;BME280;5718;42.138;24.762;2023-07-24T05:44:20;99748.84;;;24.55;100.00
11327;BME280;5718;42.138;24.762;2023-07-24T05:46:47;99742.84;;;24.85;100.00
11327;BME280;5718;42.138;24.762;2023-07-24T05:49:13;99741.66;;;25.06;100.00
11327;BME280;5718;42.138;24.762;2023-07-24T05:51:40;99736.13;;;25.11;100.00
11327;BME280;5718;42.138;24.762;2023-07-24T05:54:07;99742.09;;;25.14;100.00
11327;BME280;5718;42.138;24.762;2023-07-24T05:56:34;99731.22;;;25.19;100.00
11327;BME280;5718;42.138;24.762;2023-07-24T05:59:00;99737.72;;;25.45;100.00
11327;BME280;5718;42.138;24.762;2023-07-24T06:01:28;99741.72;;;25.68;100.00
11327;BME280;5718;42.138;24.762;2023-07-24T06:03:55;99739.50;;;25.76;100.00
11327;BME280;5718;42.138;24.762;2023-07-24T06:06:22;99733.94;;;25.95;100.00
11327;BME280;5718;42.138;24.762;2023-07-24T06:08:48;99732.97;;;25.96;100.00
11327;BME280;5718;42.138;24.762;2023-07-24T06:11:16;99735.69;;;26.10;100.00
11327;BME280;5718;42.138;24.762;2023-07-24T06:13:43;99738.56;;;26.36;100.00
11327;BME280;5718;42.138;24.762;2023-07-24T06:16:10;99741.88;;;26.11;100.00
11327;BME280;5718;42.138;24.762;2023-07-24T06:18:40;99733.34;;;25.90;100.00
11327;BME280;5718;42.138;24.762;2023-07-24T06:21:08;99729.97;;;26.02;100.00
11327;BME280;5718;42.138;24.762;2023-07-24T06:23:34;99729.00;;;26.03;100.00
11327;BME280;5718;42.138;24.762;2023-07-24T06:26:01;99724.94;;;26.12;100.00
11327;BME280;5718;42.138;24.762;2023-07-24T06:28:28;99722.63;;;26.50;100.00
11327;BME280;5718;42.138;24.762;2023-07-24T06:30:55;99715.56;;;26.63;100.00
11327;BME280;5718;42.138;24.762;2023-07-24T06:33:21;99709.88;;;26.55;100.00
11327;BME280;5718;42.138;24.762;2023-07-24T06:35:50;99686.41;;;26.88;100.00
11327;BME280;5718;42.138;24.762;2023-07-24T06:38:17;99692.22;;;26.95;100.00
11327;BME280;5718;42.138;24.762;2023-07-24T06:40:46;99689.38;;;26.84;100.00
11327;BME280;5718;42.138;24.762;2023-07-24T06:43:13;99682.25;;;26.70;100.00
11327;BME280;5718;42.138;24.762;2023-07-24T06:45:40;99691.75;;;26.88;100.00
11327;BME280;5718;42.138;24.762;2023-07-24T06:48:06;99683.06;;;27.40;100.00
11327;BME280;5718;42.138;24.762;2023-07-24T06:50:33;99688.75;;;27.49;100.00
11327;BME280;5718;42.138;24.762;2023-07-24T06:53:01;99689.66;;;27.35;100.00
11327;BME280;5718;42.138;24.762;2023-07-24T06:55:28;99695.47;;;26.86;100.00
11327;BME280;5718;42.138;24.762;2023-07-24T06:57:54;99692.50;;;27.59;100.00
11327;BME280;5718;42.138;24.762;2023-07-24T07:00:21;99681.47;;;27.90;100.00
11327;BME280;5718;42.138;24.762;2023-07-24T07:02:48;99684.16;;;27.90;100.00
11327;BME280;5718;42.138;24.762;2023-07-24T07:05:15;99678.50;;;27.82;100.00
11327;BME280;5718;42.138;24.762;2023-07-24T07:07:41;99678.72;;;28.17;100.00
11327;BME280;5718;42.138;24.762;2023-07-24T07:10:10;99678.03;;;27.88;100.00
11327;BME280;5718;42.138;24.762;2023-07-24T07:12:36;99680.38;;;27.80;100.00
11327;BME280;5718;42.138;24.762;2023-07-24T07:15:04;99673.38;;;28.56;100.00
11327;BME280;5718;42.138;24.762;2023-07-24T07:17:31;99685.53;;;28.60;100.00
11327;BME280;5718;42.138;24.762;2023-07-24T07:19:57;99668.22;;;28.52;100.00
11327;BME280;5718;42.138;24.762;2023-07-24T07:22:24;99673.25;;;29.06;100.00
11327;BME280;5718;42.138;24.762;2023-07-24T07:24:51;99664.41;;;28.93;100.00
11327;BME280;5718;42.138;24.762;2023-07-24T07:27:19;99672.91;;;29.35;100.00
11327;BME280;5718;42.138;24.762;2023-07-24T07:29:45;99665.06;;;28.97;100.00
11327;BME280;5718;42.138;24.762;2023-07-24T07:32:12;99665.38;;;28.79;100.00
11327;BME280;5718;42.138;24.762;2023-07-24T07:34:39;99659.13;;;29.04;100.00
11327;BME280;5718;42.138;24.762;2023-07-24T07:37:06;99666.22;;;29.05;97.88
11327;BME280;5718;42.138;24.762;2023-07-24T07:39:32;99656.19;;;28.96;98.93
11327;BME280;5718;42.138;24.762;2023-07-24T07:41:59;99657.66;;;29.00;97.76
11327;BME280;5718;42.138;24.762;2023-07-24T07:44:27;99649.50;;;29.02;93.61
11327;BME280;5718;42.138;24.762;2023-07-24T07:46:54;99645.72;;;29.17;89.11
11327;BME280;5718;42.138;24.762;2023-07-24T07:49:21;99650.47;;;29.73;87.41
11327;BME280;5718;42.138;24.762;2023-07-24T07:51:47;99653.56;;;29.55;84.10
11327;BME280;5718;42.138;24.762;2023-07-24T07:54:16;99654.16;;;30.05;84.00
11327;BME280;5718;42.138;24.762;2023-07-24T07:56:43;99649.94;;;30.14;82.47
11327;BME280;5718;42.138;24.762;2023-07-24T07:59:10;99647.38;;;30.35;83.37
11327;BME280;5718;42.138;24.762;2023-07-24T08:01:38;99647.13;;;30.60;81.87
11327;BME280;5718;42.138;24.762;2023-07-24T08:04:05;99638.88;;;30.30;82.06
11327;BME280;5718;42.138;24.762;2023-07-24T08:06:32;99633.75;;;30.49;80.74
11327;BME280;5718;42.138;24.762;2023-07-24T08:08:59;99638.84;;;30.52;81.48
11327;BME280;5718;42.138;24.762;2023-07-24T08:11:25;99639.34;;;30.57;79.55
11327;BME280;5718;42.138;24.762;2023-07-24T08:13:52;99633.38;;;28.54;95.60
11327;BME280;5718;42.138;24.762;2023-07-24T08:16:19;99619.50;;;28.23;100.00
11327;BME280;5718;42.138;24.762;2023-07-24T08:18:48;99628.72;;;29.53;92.57
11327;BME280;5718;42.138;24.762;2023-07-24T08:21:15;99633.25;;;30.44;86.34
11327;BME280;5718;42.138;24.762;2023-07-24T08:23:41;99633.00;;;30.36;83.36
11327;BME280;5718;42.138;24.762;2023-07-24T08:26:09;99629.84;;;30.31;85.80
11327;BME280;5718;42.138;24.762;2023-07-24T08:28:36;99626.06;;;30.33;87.02
11327;BME280;5718;42.138;24.762;2023-07-24T08:31:08;99634.19;;;30.88;81.52
11327;BME280;5718;42.138;24.762;2023-07-24T08:33:35;99635.91;;;30.89;80.65
11327;BME280;5718;42.138;24.762;2023-07-24T08:36:04;99634.69;;;31.57;75.72
11327;BME280;5718;42.138;24.762;2023-07-24T08:38:31;99635.81;;;31.22;76.31
11327;BME280;5718;42.138;24.762;2023-07-24T08:41:02;99624.59;;;31.28;76.57
11327;BME280;5718;42.138;24.762;2023-07-24T08:43:30;99619.19;;;30.85;79.57
11327;BME280;5718;42.138;24.762;2023-07-24T08:45:58;99620.91;;;31.50;76.40
11327;BME280;5718;42.138;24.762;2023-07-24T08:48:26;99615.22;;;31.44;75.44
11327;BME280;5718;42.138;24.762;2023-07-24T08:50:53;99606.44;;;30.33;82.70
11327;BME280;5718;42.138;24.762;2023-07-24T08:53:21;99606.00;;;31.37;75.39
11327;BME280;5718;42.138;24.762;2023-07-24T08:55:49;99609.94;;;31.53;72.64
11327;BME280;5718;42.138;24.762;2023-07-24T08:58:20;99606.63;;;31.50;72.42
11327;BME280;5718;42.138;24.762;2023-07-24T09:00:47;99604.94;;;31.28;76.18
11327;BME280;5718;42.138;24.762;2023-07-24T09:03:14;99603.78;;;30.98;77.76
11327;BME280;5718;42.138;24.762;2023-07-24T09:05:41;99597.38;;;31.22;76.12
11327;BME280;5718;42.138;24.762;2023-07-24T09:08:07;99601.41;;;31.90;73.19
11327;BME280;5718;42.138;24.762;2023-07-24T09:10:35;99603.44;;;31.98;69.96
11327;BME280;5718;42.138;24.762;2023-07-24T09:13:02;99589.66;;;32.12;69.15
11327;BME280;5718;42.138;24.762;2023-07-24T09:15:39;99601.75;;;31.97;69.22
11327;BME280;5718;42.138;24.762;2023-07-24T09:18:06;99599.25;;;31.84;67.37
11327;BME280;5718;42.138;24.762;2023-07-24T09:20:38;99596.69;;;32.43;61.15
11327;BME280;5718;42.138;24.762;2023-07-24T09:23:06;99592.75;;;32.38;61.49
11327;BME280;5718;42.138;24.762;2023-07-24T09:25:34;99590.00;;;32.28;58.44
11327;BME280;5718;42.138;24.762;2023-07-24T09:28:08;99593.44;;;32.09;57.97
11327;BME280;5718;42.138;24.762;2023-07-24T09:30:35;99594.59;;;32.47;57.45
11327;BME280;5718;42.138;24.762;2023-07-24T09:33:02;99592.16;;;32.84;55.43
11327;BME280;5718;42.138;24.762;2023-07-24T09:35:29;99587.38;;;33.36;52.91
11327;BME280;5718;42.138;24.762;2023-07-24T09:38:02;99577.84;;;32.93;53.56
11327;BME280;5718;42.138;24.762;2023-07-24T09:40:37;99574.34;;;32.43;56.90
11327;BME280;5718;42.138;24.762;2023-07-24T09:43:15;99560.44;;;33.17;55.03
11327;BME280;5718;42.138;24.762;2023-07-24T09:45:43;99566.22;;;33.32;52.00
11327;BME280;5718;42.138;24.762;2023-07-24T09:48:10;99565.53;;;33.49;51.19
11327;BME280;5718;42.138;24.762;2023-07-24T09:50:40;99564.81;;;33.57;50.75
11327;BME280;5718;42.138;24.762;2023-07-24T09:53:12;99557.91;;;33.44;53.39
11327;BME280;5718;42.138;24.762;2023-07-24T09:55:46;99547.38;;;33.51;53.40
11327;BME280;5718;42.138;24.762;2023-07-24T09:58:15;99522.16;;;32.75;56.46
11327;BME280;5718;42.138;24.762;2023-07-24T10:00:44;99534.31;;;32.59;56.14
11327;BME280;5718;42.138;24.762;2023-07-24T10:03:13;99539.75;;;32.88;53.55
11327;BME280;5718;42.138;24.762;2023-07-24T10:05:41;99531.38;;;32.82;53.37
11327;BME280;5718;42.138;24.762;2023-07-24T10:08:09;99526.59;;;32.95;51.93
11327;BME280;5718;42.138;24.762;2023-07-24T10:10:36;99527.16;;;32.98;52.12
11327;BME280;5718;42.138;24.762;2023-07-24T10:13:04;99517.50;;;33.15;51.17
11327;BME280;5718;42.138;24.762;2023-07-24T10:15:33;99517.63;;;32.75;53.29
11327;BME280;5718;42.138;24.762;2023-07-24T10:18:04;99516.38;;;32.89;53.23
11327;BME280;5718;42.138;24.762;2023-07-24T10:20:34;99512.56;;;32.91;52.14
11327;BME280;5718;42.138;24.762;2023-07-24T10:23:02;99503.34;;;33.13;51.78
11327;BME280;5718;42.138;24.762;2023-07-24T10:25:30;99509.69;;;33.88;49.93
11327;BME280;5718;42.138;24.762;2023-07-24T10:28:01;99501.91;;;34.40;47.79
11327;BME280;5718;42.138;24.762;2023-07-24T10:30:32;99498.25;;;34.77;46.19
11327;BME280;5718;42.138;24.762;2023-07-24T10:33:07;99494.16;;;34.73;46.29
11327;BME280;5718;42.138;24.762;2023-07-24T10:35:41;99487.03;;;34.36;46.80
11327;BME280;5718;42.138;24.762;2023-07-24T10:38:09;99487.31;;;34.33;45.94
11327;BME280;5718;42.138;24.762;2023-07-24T10:40:35;99480.59;;;33.92;45.23
11327;BME280;5718;42.138;24.762;2023-07-24T10:43:06;99476.88;;;33.93;45.25
11327;BME280;5718;42.138;24.762;2023-07-24T10:45:47;99482.53;;;34.27;44.14
11327;BME280;5718;42.138;24.762;2023-07-24T10:48:15;99467.16;;;34.55;41.66
11327;BME280;5718;42.138;24.762;2023-07-24T10:50:43;99464.72;;;34.34;42.16
11327;BME280;5718;42.138;24.762;2023-07-24T10:53:11;99462.91;;;34.07;45.29
11327;BME280;5718;42.138;24.762;2023-07-24T10:55:38;99459.72;;;34.21;40.58
11327;BME280;5718;42.138;24.762;2023-07-24T10:58:06;99447.31;;;34.11;43.28
11327;BME280;5718;42.138;24.762;2023-07-24T11:00:32;99439.06;;;34.12;41.95
11327;BME280;5718;42.138;24.762;2023-07-24T11:03:01;99443.03;;;34.08;38.12
11327;BME280;5718;42.138;24.762;2023-07-24T11:05:27;99431.75;;;34.58;40.78
11327;BME280;5718;42.138;24.762;2023-07-24T11:07:54;99426.09;;;34.43;41.71
11327;BME280;5718;42.138;24.762;2023-07-24T11:10:22;99417.69;;;34.46;42.52
11327;BME280;5718;42.138;24.762;2023-07-24T11:12:49;99419.94;;;34.51;41.70
11327;BME280;5718;42.138;24.762;2023-07-24T11:15:24;99420.28;;;34.56;42.37
11327;BME280;5718;42.138;24.762;2023-07-24T11:17:51;99420.25;;;34.38;39.55
11327;BME280;5718;42.138;24.762;2023-07-24T11:20:19;99411.84;;;34.23;42.07
11327;BME280;5718;42.138;24.762;2023-07-24T11:22:46;99406.00;;;34.28;43.36
11327;BME280;5718;42.138;24.762;2023-07-24T11:25:13;99399.66;;;33.74;42.95
11327;BME280;5718;42.138;24.762;2023-07-24T11:27:40;99404.94;;;34.21;41.46
11327;BME280;5718;42.138;24.762;2023-07-24T11:30:10;99398.59;;;34.30;41.33
11327;BME280;5718;42.138;24.762;2023-07-24T11:32:39;99411.31;;;34.38;40.08
11327;BME280;5718;42.138;24.762;2023-07-24T11:35:07;99407.28;;;34.51;39.75
11327;BME280;5718;42.138;24.762;2023-07-24T11:37:35;99402.09;;;34.40;41.02
11327;BME280;5718;42.138;24.762;2023-07-24T11:40:04;99398.47;;;34.49;38.99
11327;BME280;5718;42.138;24.762;2023-07-24T11:42:37;99390.47;;;35.01;38.21
11327;BME280;5718;42.138;24.762;2023-07-24T11:45:05;99387.03;;;35.17;37.47
11327;BME280;5718;42.138;24.762;2023-07-24T11:47:41;99389.53;;;35.10;38.86
11327;BME280;5718;42.138;24.762;2023-07-24T11:50:08;99384.38;;;34.81;39.30
11327;BME280;5718;42.138;24.762;2023-07-24T11:52:40;99393.66;;;34.79;39.52
11327;BME280;5718;42.138;24.762;2023-07-24T11:55:09;99387.75;;;34.57;38.53
11327;BME280;5718;42.138;24.762;2023-07-24T11:57:36;99384.97;;;34.31;39.01
11327;BME280;5718;42.138;24.762;2023-07-24T12:00:04;99388.75;;;34.56;38.04
11327;BME280;5718;42.138;24.762;2023-07-24T12:02:32;99378.97;;;34.55;39.20
11327;BME280;5718;42.138;24.762;2023-07-24T12:04:59;99383.56;;;35.07;38.69
11327;BME280;5718;42.138;24.762;2023-07-24T12:07:31;99382.78;;;35.40;37.07
11327;BME280;5718;42.138;24.762;2023-07-24T12:10:00;99379.69;;;35.69;37.03
11327;BME280;5718;42.138;24.762;2023-07-24T12:12:39;99377.13;;;36.10;35.89
11327;BME280;5718;42.138;24.762;2023-07-24T12:15:08;99385.63;;;36.40;35.68
11327;BME280;5718;42.138;24.762;2023-07-24T12:17:35;99371.38;;;36.21;32.62
11327;BME280;5718;42.138;24.762;2023-07-24T12:20:02;99368.38;;;36.49;32.14
11327;BME280;5718;42.138;24.762;2023-07-24T12:22:30;99375.84;;;36.63;31.91
11327;BME280;5718;42.138;24.762;2023-07-24T12:24:56;99364.81;;;35.65;32.66
11327;BME280;5718;42.138;24.762;2023-07-24T12:27:24;99360.69;;;35.95;33.21
11327;BME280;5718;42.138;24.762;2023-07-24T12:29:51;99360.97;;;36.43;31.90
11327;BME280;5718;42.138;24.762;2023-07-24T12:32:18;99360.09;;;36.34;31.71
11327;BME280;5718;42.138;24.762;2023-07-24T12:34:46;99351.16;;;36.42;32.20
11327;BME280;5718;42.138;24.762;2023-07-24T12:37:13;99351.78;;;36.36;32.89
11327;BME280;5718;42.138;24.762;2023-07-24T12:39:40;99349.06;;;36.03;32.46
11327;BME280;5718;42.138;24.762;2023-07-24T12:42:06;99347.44;;;35.68;33.06
11327;BME280;5718;42.138;24.762;2023-07-24T12:44:34;99337.09;;;35.63;33.23
11327;BME280;5718;42.138;24.762;2023-07-24T12:47:01;99331.06;;;35.78;33.05
11327;BME280;5718;42.138;24.762;2023-07-24T12:49:28;99319.88;;;35.64;32.93
11327;BME280;5718;42.138;24.762;2023-07-24T12:51:55;99323.28;;;35.83;33.17
11327;BME280;5718;42.138;24.762;2023-07-24T12:54:21;99325.19;;;35.90;32.52
11327;BME280;5718;42.138;24.762;2023-07-24T12:56:48;99321.66;;;36.30;32.56